createdAt,value
2023-11-23T00:01:00.955Z,81.74
2023-11-23T00:03:43.254Z,81.83
2023-11-23T00:06:15.461Z,82.05
2023-11-23T00:08:47.493Z,82.29
2023-11-23T00:11:19.525Z,82.44
2023-11-23T00:13:52.019Z,82.62
2023-11-23T00:16:23.993Z,82.53
2023-11-23T00:18:55.983Z,82.86
2023-11-23T00:21:28.059Z,82.40
2023-11-23T00:24:00.117Z,82.28
2023-11-23T00:26:33.238Z,82.32
2023-11-23T00:29:06.393Z,82.11
2023-11-23T00:31:38.431Z,82.40
2023-11-23T00:34:10.486Z,82.44
2023-11-23T00:36:42.669Z,82.93
2023-11-23T00:39:14.694Z,82.96
2023-11-23T00:41:46.740Z,83.21
2023-11-23T00:44:19.295Z,83.40
2023-11-23T00:46:51.615Z,83.56
2023-11-23T00:49:24.068Z,83.88
2023-11-23T00:51:56.537Z,83.54
2023-11-23T00:54:28.884Z,83.55
2023-11-23T00:57:01.014Z,83.37
2023-11-23T00:59:33.076Z,83.27
2023-11-23T01:02:05.527Z,83.75
2023-11-23T01:04:38.908Z,84.00
2023-11-23T01:07:11.133Z,84.06
2023-11-23T01:09:43.206Z,84.36
2023-11-23T01:12:15.765Z,84.68
2023-11-23T01:14:47.819Z,84.34
2023-11-23T01:17:19.828Z,83.89
2023-11-23T01:19:52.054Z,83.53
2023-11-23T01:22:24.092Z,83.58
2023-11-23T01:24:56.834Z,83.71
2023-11-23T01:27:28.875Z,84.58
2023-11-23T01:30:00.875Z,84.86
2023-11-23T01:32:33.749Z,85.00
2023-11-23T01:35:07.453Z,84.44
2023-11-23T01:37:39.474Z,84.21
2023-11-23T01:40:13.414Z,84.26
2023-11-23T01:42:47.070Z,84.13
2023-11-23T01:45:23.693Z,84.22
2023-11-23T01:47:56.061Z,84.16
2023-11-23T01:50:29.515Z,84.44
2023-11-23T01:53:01.958Z,84.82
2023-11-23T01:55:34.373Z,85.20
2023-11-23T01:58:08.799Z,84.78
2023-11-23T02:00:40.791Z,84.20
2023-11-23T02:03:13.097Z,83.82
2023-11-23T02:05:45.926Z,83.86
2023-11-23T02:08:17.951Z,83.45
2023-11-23T02:10:49.936Z,83.50
2023-11-23T02:13:21.883Z,83.77
2023-11-23T02:15:53.940Z,84.12
2023-11-23T02:18:26.795Z,84.47
2023-11-23T02:20:58.908Z,84.72
2023-11-23T02:23:32.282Z,84.78
2023-11-23T02:26:04.329Z,84.80
2023-11-23T02:28:37.671Z,84.70
2023-11-23T02:31:09.827Z,84.37
2023-11-23T02:33:41.865Z,84.18
2023-11-23T02:36:14.125Z,83.99
2023-11-23T02:38:46.231Z,84.00
2023-11-23T02:41:18.184Z,84.13
2023-11-23T02:43:51.057Z,84.00
2023-11-23T02:46:23.069Z,84.36
2023-11-23T02:48:55.045Z,84.80
2023-11-23T02:51:27.660Z,84.74
2023-11-23T02:53:59.649Z,84.77
2023-11-23T02:56:32.189Z,84.84
2023-11-23T02:59:04.384Z,84.87
2023-11-23T03:01:36.496Z,85.59
2023-11-23T03:04:08.887Z,85.14
2023-11-23T03:06:40.944Z,84.78
2023-11-23T03:09:14.041Z,84.54
2023-11-23T03:11:46.037Z,84.71
2023-11-23T03:14:18.109Z,84.86
2023-11-23T03:16:51.802Z,85.14
2023-11-23T03:19:23.845Z,85.01
2023-11-23T03:21:55.853Z,85.12
2023-11-23T03:24:28.068Z,85.38
2023-11-23T03:27:00.591Z,85.39
2023-11-23T03:29:32.629Z,85.77
2023-11-23T03:32:04.851Z,85.79
2023-11-23T03:34:36.832Z,85.46
2023-11-23T03:37:09.479Z,84.77
2023-11-23T03:39:41.454Z,84.34
2023-11-23T03:42:13.398Z,84.46
2023-11-23T03:44:45.386Z,84.64
2023-11-23T03:47:17.841Z,84.59
2023-11-23T03:49:50.863Z,85.05
2023-11-23T03:52:23.322Z,85.17
2023-11-23T03:54:55.548Z,85.56
2023-11-23T03:57:27.542Z,85.50
2023-11-23T03:59:59.867Z,85.42
2023-11-23T04:02:31.875Z,85.43
2023-11-23T04:05:04.257Z,85.29
2023-11-23T04:07:36.291Z,85.28
2023-11-23T04:10:10.557Z,85.39
2023-11-23T04:12:42.539Z,84.90
2023-11-23T04:15:15.630Z,84.71
2023-11-23T04:17:47.656Z,84.64
2023-11-23T04:20:19.746Z,84.20
2023-11-23T04:22:51.711Z,84.36
2023-11-23T04:25:23.711Z,84.26
2023-11-23T04:27:55.669Z,84.61
2023-11-23T04:30:27.687Z,85.04
2023-11-23T04:33:00.257Z,85.64
2023-11-23T04:35:32.515Z,85.99
2023-11-23T04:38:04.516Z,85.20
2023-11-23T04:40:37.170Z,84.95
2023-11-23T04:43:09.217Z,84.46
2023-11-23T04:45:42.381Z,84.05
2023-11-23T04:48:14.551Z,83.97
2023-11-23T04:50:46.757Z,83.95
2023-11-23T04:53:19.725Z,83.99
2023-11-23T04:55:51.658Z,84.49
2023-11-23T04:58:25.891Z,84.97
2023-11-23T05:00:58.163Z,84.72
2023-11-23T05:03:31.511Z,84.15
2023-11-23T05:06:03.885Z,83.77
2023-11-23T05:08:37.923Z,83.53
2023-11-23T05:11:10.060Z,83.55
2023-11-23T05:13:42.165Z,83.96
2023-11-23T05:16:14.149Z,84.27
2023-11-23T05:18:46.170Z,84.69
2023-11-23T05:21:18.168Z,84.25
2023-11-23T05:23:50.457Z,83.81
2023-11-23T05:26:22.560Z,83.62
2023-11-23T05:28:54.636Z,83.43
2023-11-23T05:31:26.737Z,83.76
2023-11-23T05:33:58.828Z,84.25
2023-11-23T05:36:31.039Z,84.09
2023-11-23T05:39:03.079Z,83.65
2023-11-23T05:41:35.082Z,83.55
2023-11-23T05:44:07.547Z,83.23
2023-11-23T05:46:40.182Z,83.22
2023-11-23T05:49:13.295Z,83.21
2023-11-23T05:51:45.631Z,83.29
2023-11-23T05:54:17.729Z,83.40
2023-11-23T05:56:52.095Z,83.48
2023-11-23T05:59:24.162Z,83.33
2023-11-23T06:01:56.295Z,83.17
2023-11-23T06:04:28.533Z,83.17
2023-11-23T06:07:00.661Z,83.15
2023-11-23T06:09:32.591Z,83.34
2023-11-23T06:12:06.273Z,82.73
2023-11-23T06:14:39.252Z,82.44
2023-11-23T06:17:11.863Z,82.24
2023-11-23T06:19:44.562Z,82.59
2023-11-23T06:22:16.540Z,82.39
2023-11-23T06:24:48.817Z,82.41
2023-11-23T06:27:21.028Z,82.32
2023-11-23T06:29:53.903Z,82.20
2023-11-23T06:32:26.076Z,82.20
2023-11-23T06:34:58.071Z,82.17
2023-11-23T06:37:30.149Z,81.99
2023-11-23T06:40:02.167Z,81.63
2023-11-23T06:42:36.347Z,81.51
2023-11-23T06:45:14.971Z,81.43
2023-11-23T06:47:47.089Z,81.53
2023-11-23T06:50:19.339Z,81.66
2023-11-23T06:52:51.718Z,81.56
2023-11-23T06:55:23.827Z,81.66
2023-11-23T06:57:55.848Z,81.50
2023-11-23T07:00:27.927Z,81.18
2023-11-23T07:03:02.694Z,80.93
2023-11-23T07:05:34.807Z,80.93
2023-11-23T07:08:07.577Z,81.41
2023-11-23T07:10:42.477Z,81.13
2023-11-23T07:13:15.088Z,80.96
2023-11-23T07:15:48.045Z,81.32
2023-11-23T07:18:20.460Z,80.89
2023-11-23T07:20:54.653Z,80.81
2023-11-23T07:23:27.474Z,80.76
2023-11-23T07:25:59.538Z,80.72
2023-11-23T07:28:31.708Z,80.65
2023-11-23T07:31:03.885Z,80.27
2023-11-23T07:33:36.867Z,80.05
2023-11-23T07:36:10.654Z,79.96
2023-11-23T07:38:46.382Z,79.97
2023-11-23T07:41:19.376Z,80.38
2023-11-23T07:43:51.998Z,80.12
2023-11-23T07:46:25.146Z,79.66
2023-11-23T07:48:58.019Z,79.89
2023-11-23T07:51:30.039Z,79.90
2023-11-23T07:54:02.098Z,80.35
2023-11-23T07:56:36.042Z,79.86
2023-11-23T07:59:08.257Z,79.10
2023-11-23T08:01:40.404Z,79.32
2023-11-23T08:04:13.120Z,79.34
2023-11-23T08:06:45.278Z,79.80
2023-11-23T08:09:20.564Z,79.85
2023-11-23T08:11:54.212Z,79.45
2023-11-23T08:14:26.392Z,79.03
2023-11-23T08:16:58.413Z,78.66
2023-11-23T08:19:31.642Z,78.91
2023-11-23T08:22:06.879Z,79.22
2023-11-23T08:24:39.158Z,78.97
2023-11-23T08:27:11.703Z,78.89
2023-11-23T08:29:43.686Z,78.81
2023-11-23T08:32:16.693Z,78.63
2023-11-23T08:34:49.745Z,78.96
2023-11-23T08:37:21.800Z,79.06
2023-11-23T08:39:54.040Z,78.77
2023-11-23T08:42:26.067Z,78.39
2023-11-23T08:44:58.101Z,78.08
2023-11-23T08:47:30.675Z,77.91
2023-11-23T08:50:02.593Z,78.29
2023-11-23T08:52:34.586Z,78.75
2023-11-23T08:55:08.870Z,78.12
2023-11-23T08:57:42.070Z,77.60
2023-11-23T09:00:17.755Z,77.14
2023-11-23T09:02:51.835Z,77.09
2023-11-23T09:05:24.654Z,76.44
2023-11-23T09:07:56.897Z,76.76
2023-11-23T09:10:28.842Z,77.42
2023-11-23T09:13:03.052Z,77.49
2023-11-23T09:15:35.199Z,76.44
2023-11-23T09:18:09.256Z,76.08
2023-11-23T09:20:41.517Z,75.94
2023-11-23T09:23:13.635Z,76.31
2023-11-23T09:25:45.625Z,76.16
2023-11-23T09:28:17.607Z,75.99
2023-11-23T09:30:49.663Z,75.36
2023-11-23T09:33:24.678Z,74.97
2023-11-23T09:35:58.278Z,74.90
2023-11-23T09:38:30.365Z,74.80
2023-11-23T09:41:03.529Z,75.20
2023-11-23T09:43:35.724Z,75.36
2023-11-23T09:46:08.621Z,75.35
2023-11-23T09:48:44.910Z,75.29
2023-11-23T09:51:15.774Z,74.81
2023-11-23T09:53:49.613Z,74.70
2023-11-23T09:56:21.692Z,74.93
2023-11-23T09:58:53.866Z,75.05
2023-11-23T10:01:29.294Z,74.55
2023-11-23T10:04:02.302Z,74.70
2023-11-23T10:06:35.047Z,74.82
2023-11-23T10:09:10.883Z,74.84
2023-11-23T10:11:44.157Z,75.33
2023-11-23T10:14:17.674Z,74.96
2023-11-23T10:16:49.697Z,74.20
2023-11-23T10:19:25.790Z,73.85
2023-11-23T10:22:00.998Z,73.90
2023-11-23T10:24:34.549Z,74.08
2023-11-23T10:27:07.997Z,74.26
2023-11-23T10:29:40.058Z,74.39
2023-11-23T10:32:13.775Z,74.55
2023-11-23T10:34:48.229Z,74.48
2023-11-23T10:37:25.478Z,73.83
2023-11-23T10:39:59.204Z,73.93
2023-11-23T10:42:34.327Z,72.81
2023-11-23T10:45:08.417Z,72.37
2023-11-23T10:47:43.529Z,72.46
2023-11-23T10:50:17.039Z,72.87
2023-11-23T10:52:49.899Z,72.97
2023-11-23T10:55:21.916Z,73.79
2023-11-23T10:57:59.768Z,73.43
2023-11-23T11:00:32.843Z,72.99
2023-11-23T11:03:09.917Z,72.93
2023-11-23T11:05:47.556Z,73.01
2023-11-23T11:08:28.185Z,73.96
2023-11-23T11:11:00.394Z,73.72
2023-11-23T11:13:35.905Z,72.82
2023-11-23T11:16:11.922Z,72.87
2023-11-23T11:18:51.631Z,73.63
2023-11-23T11:21:27.225Z,73.77
2023-11-23T11:24:00.783Z,73.54
2023-11-23T11:26:35.856Z,73.49
2023-11-23T11:29:10.068Z,73.71
2023-11-23T11:31:44.685Z,73.56
2023-11-23T11:34:21.788Z,74.27
2023-11-23T11:37:01.372Z,74.24
2023-11-23T11:39:38.315Z,74.02
2023-11-23T11:42:12.130Z,73.60
2023-11-23T11:44:47.743Z,73.55
2023-11-23T11:47:21.117Z,73.34
2023-11-23T11:49:53.922Z,73.44
2023-11-23T11:52:27.686Z,73.44
2023-11-23T11:55:00.573Z,73.24
2023-11-23T11:57:42.330Z,73.89
2023-11-23T12:00:15.865Z,73.34
2023-11-23T12:02:48.022Z,73.34
2023-11-23T12:05:22.278Z,73.60
2023-11-23T12:07:58.042Z,73.12
2023-11-23T12:10:39.841Z,73.49
2023-11-23T12:13:16.194Z,72.81
2023-11-23T12:15:48.376Z,72.41
2023-11-23T12:18:30.795Z,72.44
2023-11-23T12:21:01.411Z,71.86
2023-11-23T12:23:41.878Z,72.35
2023-11-23T12:26:14.550Z,72.49
2023-11-23T12:28:50.173Z,72.60
2023-11-23T12:31:22.940Z,72.81
2023-11-23T12:33:55.185Z,73.18
2023-11-23T12:36:27.308Z,73.47
2023-11-23T12:38:59.486Z,73.90
2023-11-23T12:41:42.460Z,74.05
2023-11-23T12:44:18.706Z,73.91
2023-11-23T12:46:51.428Z,73.88
2023-11-23T12:49:23.653Z,74.25
2023-11-23T12:51:55.953Z,74.95
2023-11-23T12:54:28.146Z,74.35
2023-11-23T12:57:00.345Z,75.02
2023-11-23T12:59:32.611Z,75.09
2023-11-23T13:02:05.164Z,75.65
2023-11-23T13:04:38.860Z,76.21
2023-11-23T13:07:11.651Z,75.70
2023-11-23T13:09:44.198Z,75.63
2023-11-23T13:12:19.054Z,76.00
2023-11-23T13:14:51.286Z,76.12
2023-11-23T13:17:24.484Z,76.34
2023-11-23T13:19:58.611Z,76.84
2023-11-23T13:22:30.678Z,76.80
2023-11-23T13:25:03.322Z,76.50
2023-11-23T13:27:36.440Z,76.83
2023-11-23T13:30:11.023Z,77.09
2023-11-23T13:32:44.180Z,77.25
2023-11-23T13:35:16.753Z,77.16
2023-11-23T13:37:48.931Z,76.99
2023-11-23T13:40:21.376Z,77.34
2023-11-23T13:42:54.148Z,77.66
2023-11-23T13:45:28.323Z,77.32
2023-11-23T13:48:02.472Z,78.02
2023-11-23T13:50:34.583Z,78.39
2023-11-23T13:53:08.081Z,78.06
2023-11-23T13:55:41.750Z,77.87
2023-11-23T13:58:15.032Z,78.29
2023-11-23T14:00:48.190Z,78.09
2023-11-23T14:03:20.443Z,78.40
2023-11-23T14:05:53.119Z,78.33
2023-11-23T14:08:25.288Z,78.16
2023-11-23T14:10:57.301Z,78.33
2023-11-23T14:13:29.605Z,78.55
2023-11-23T14:16:01.834Z,78.85
2023-11-23T14:18:34.108Z,79.25
2023-11-23T14:21:08.300Z,79.32
2023-11-23T14:23:40.892Z,79.45
2023-11-23T14:26:12.948Z,79.32
2023-11-23T14:28:45.209Z,79.60
2023-11-23T14:31:20.667Z,79.70
2023-11-23T14:33:55.277Z,79.57
2023-11-23T14:36:27.414Z,79.96
2023-11-23T14:38:59.925Z,79.93
2023-11-23T14:41:31.968Z,79.92
2023-11-23T14:44:04.756Z,79.48
2023-11-23T14:46:37.885Z,79.78
2023-11-23T14:49:11.299Z,79.68
2023-11-23T14:51:46.067Z,79.80
2023-11-23T14:54:24.864Z,79.89
2023-11-23T14:57:01.484Z,79.96
2023-11-23T14:59:33.533Z,79.97
2023-11-23T15:02:05.858Z,79.84
2023-11-23T15:04:38.130Z,80.10
2023-11-23T15:07:10.225Z,80.33
2023-11-23T15:09:43.074Z,80.39
2023-11-23T15:12:15.757Z,80.40
2023-11-23T15:14:47.865Z,80.53
2023-11-23T15:17:21.738Z,80.44
2023-11-23T15:19:53.840Z,80.36
2023-11-23T15:22:26.945Z,80.14
2023-11-23T15:25:05.961Z,80.17
2023-11-23T15:27:43.933Z,80.03
2023-11-23T15:30:16.545Z,80.15
2023-11-23T15:32:50.610Z,80.01
2023-11-23T15:35:22.910Z,80.08
2023-11-23T15:37:56.003Z,79.63
2023-11-23T15:40:28.092Z,79.78
2023-11-23T15:43:00.147Z,79.47
2023-11-23T15:45:32.696Z,79.56
2023-11-23T15:48:05.003Z,79.88
2023-11-23T15:50:37.114Z,79.87
2023-11-23T15:53:10.434Z,79.37
2023-11-23T15:55:42.518Z,79.07
2023-11-23T15:58:14.603Z,79.75
2023-11-23T16:00:46.879Z,79.62
2023-11-23T16:03:18.996Z,79.14
2023-11-23T16:05:52.293Z,79.12
2023-11-23T16:08:24.941Z,79.09
2023-11-23T16:10:57.487Z,79.36
2023-11-23T16:13:29.632Z,79.50
2023-11-23T16:16:01.824Z,78.93
2023-11-23T16:18:36.460Z,79.26
2023-11-23T16:21:09.218Z,79.22
2023-11-23T16:23:43.628Z,79.50
2023-11-23T16:26:15.772Z,79.50
2023-11-23T16:28:47.836Z,79.14
2023-11-23T16:31:20.675Z,79.24
2023-11-23T16:33:54.965Z,79.48
2023-11-23T16:36:33.713Z,79.46
2023-11-23T16:39:16.677Z,79.60
2023-11-23T16:41:49.650Z,79.78
2023-11-23T16:44:22.252Z,79.72
2023-11-23T16:46:57.310Z,79.33
2023-11-23T16:49:29.571Z,79.61
2023-11-23T16:52:01.898Z,79.74
2023-11-23T16:54:34.139Z,79.15
2023-11-23T16:57:06.774Z,79.41
2023-11-23T16:59:39.716Z,79.31
2023-11-23T17:02:11.803Z,78.82
2023-11-23T17:04:44.686Z,78.96
2023-11-23T17:07:18.207Z,79.22
2023-11-23T17:09:51.331Z,79.43
2023-11-23T17:12:24.657Z,79.27
2023-11-23T17:14:56.763Z,79.22
2023-11-23T17:17:28.951Z,79.34
2023-11-23T17:20:01.063Z,79.51
2023-11-23T17:22:35.678Z,79.26
2023-11-23T17:25:10.466Z,79.08
2023-11-23T17:27:48.448Z,79.33
2023-11-23T17:30:21.203Z,79.09
2023-11-23T17:32:53.555Z,79.53
2023-11-23T17:35:26.354Z,79.96
2023-11-23T17:37:58.526Z,80.18
2023-11-23T17:40:30.587Z,79.73
2023-11-23T17:43:02.678Z,80.07
2023-11-23T17:45:35.973Z,79.98
2023-11-23T17:48:09.334Z,80.38
2023-11-23T17:50:41.621Z,80.45
2023-11-23T17:53:14.285Z,80.16
2023-11-23T17:55:46.991Z,80.18
2023-11-23T17:58:19.002Z,79.95
2023-11-23T18:00:51.297Z,79.97
2023-11-23T18:03:23.579Z,79.99
2023-11-23T18:05:55.785Z,80.40
2023-11-23T18:08:28.150Z,80.29
2023-11-23T18:11:01.639Z,80.19
2023-11-23T18:13:33.766Z,80.17
2023-11-23T18:16:06.044Z,79.79
2023-11-23T18:18:42.062Z,80.04
2023-11-23T18:21:14.314Z,80.04
2023-11-23T18:23:46.852Z,79.86
2023-11-23T18:26:18.962Z,79.75
2023-11-23T18:28:51.795Z,79.67
2023-11-23T18:31:24.263Z,79.65
2023-11-23T18:33:56.569Z,79.84
2023-11-23T18:36:28.765Z,80.03
2023-11-23T18:39:01.579Z,79.98
2023-11-23T18:41:33.630Z,79.78
2023-11-23T18:44:06.450Z,79.84
2023-11-23T18:46:39.328Z,79.97
2023-11-23T18:49:11.491Z,79.96
2023-11-23T18:51:43.587Z,79.78
2023-11-23T18:54:16.329Z,80.08
2023-11-23T18:56:48.533Z,80.06
2023-11-23T18:59:20.605Z,80.40
2023-11-23T19:01:55.255Z,80.53
2023-11-23T19:04:27.651Z,80.57
2023-11-23T19:06:59.944Z,80.95
2023-11-23T19:09:33.761Z,80.86
2023-11-23T19:12:06.901Z,80.85
2023-11-23T19:14:39.629Z,80.98
2023-11-23T19:17:11.837Z,81.55
2023-11-23T19:19:44.651Z,81.54
2023-11-23T19:22:18.471Z,81.49
2023-11-23T19:24:52.946Z,81.47
2023-11-23T19:27:26.268Z,81.49
2023-11-23T19:29:59.390Z,81.11
2023-11-23T19:32:33.770Z,81.41
2023-11-23T19:35:10.592Z,80.96
2023-11-23T19:37:44.172Z,80.64
2023-11-23T19:40:19.420Z,80.67
2023-11-23T19:42:53.401Z,80.36
2023-11-23T19:45:28.460Z,80.06
2023-11-23T19:48:02.275Z,80.01
2023-11-23T19:50:36.597Z,79.70
2023-11-23T19:53:12.959Z,80.01
2023-11-23T19:55:45.926Z,79.65
2023-11-23T19:58:18.105Z,79.58
2023-11-23T20:00:50.385Z,79.23
2023-11-23T20:03:22.562Z,79.61
2023-11-23T20:05:54.660Z,79.61
2023-11-23T20:08:27.157Z,79.36
2023-11-23T20:10:59.203Z,79.40
2023-11-23T20:13:31.413Z,79.02
2023-11-23T20:16:04.057Z,78.85
2023-11-23T20:18:37.218Z,78.87
2023-11-23T20:21:12.011Z,79.00
2023-11-23T20:23:44.333Z,79.26
2023-11-23T20:26:16.458Z,79.40
2023-11-23T20:28:48.731Z,79.19
2023-11-23T20:31:21.499Z,79.50
2023-11-23T20:33:53.773Z,79.33
2023-11-23T20:36:25.967Z,79.33
2023-11-23T20:38:58.861Z,79.34
2023-11-23T20:41:31.080Z,79.46
2023-11-23T20:44:03.900Z,79.64
2023-11-23T20:46:36.195Z,79.69
2023-11-23T20:49:08.650Z,79.70
2023-11-23T20:51:41.460Z,79.75
2023-11-23T20:54:14.301Z,79.90
2023-11-23T20:56:48.702Z,79.83
2023-11-23T20:59:21.865Z,79.82
2023-11-23T21:01:55.758Z,79.56
2023-11-23T21:04:31.257Z,79.58
2023-11-23T21:07:08.852Z,79.56
2023-11-23T21:09:42.062Z,79.24
2023-11-23T21:12:24.533Z,79.17
2023-11-23T21:14:59.481Z,79.14
2023-11-23T21:17:31.647Z,78.93
2023-11-23T21:20:05.844Z,79.32
2023-11-23T21:22:38.047Z,79.16
2023-11-23T21:25:11.384Z,78.94
2023-11-23T21:27:43.630Z,78.83
2023-11-23T21:30:16.252Z,78.83
2023-11-23T21:32:48.731Z,78.84
2023-11-23T21:35:22.532Z,79.05
2023-11-23T21:37:54.796Z,78.78
2023-11-23T21:40:27.428Z,78.79
2023-11-23T21:42:59.672Z,78.65
2023-11-23T21:45:32.024Z,78.55
2023-11-23T21:48:04.162Z,77.98
2023-11-23T21:50:37.901Z,78.28
2023-11-23T21:53:10.113Z,78.64
2023-11-23T21:55:42.308Z,78.15
2023-11-23T21:58:15.307Z,78.10
2023-11-23T22:00:47.372Z,78.13
2023-11-23T22:03:19.593Z,78.16
2023-11-23T22:05:51.768Z,78.04
2023-11-23T22:08:23.858Z,78.06
2023-11-23T22:10:55.884Z,78.02
2023-11-23T22:13:27.958Z,77.99
2023-11-23T22:16:01.385Z,78.05
2023-11-23T22:18:34.465Z,78.06
2023-11-23T22:21:08.922Z,78.21
2023-11-23T22:23:41.718Z,78.50
2023-11-23T22:26:16.261Z,78.68
2023-11-23T22:28:49.245Z,78.80
2023-11-23T22:31:23.142Z,78.94
2023-11-23T22:33:56.303Z,78.58
2023-11-23T22:36:30.894Z,78.72
2023-11-23T22:39:04.482Z,78.59
2023-11-23T22:41:38.827Z,78.75
2023-11-23T22:44:14.099Z,79.00
2023-11-23T22:46:47.348Z,79.02
2023-11-23T22:49:19.399Z,79.00
2023-11-23T22:51:51.419Z,79.08
2023-11-23T22:54:23.468Z,79.10
2023-11-23T22:56:55.687Z,79.22
2023-11-23T22:59:27.715Z,79.17
2023-11-23T23:02:00.086Z,78.96
2023-11-23T23:04:32.628Z,78.91
2023-11-23T23:07:07.253Z,78.95
2023-11-23T23:09:39.285Z,78.90
2023-11-23T23:12:11.910Z,78.83
2023-11-23T23:14:44.903Z,79.10
2023-11-23T23:17:16.898Z,79.04
2023-11-23T23:19:48.959Z,79.14
2023-11-23T23:22:26.741Z,79.18
2023-11-23T23:25:01.322Z,79.62
2023-11-23T23:27:34.012Z,79.42
2023-11-23T23:30:07.413Z,79.40
2023-11-23T23:32:40.000Z,79.52
2023-11-23T23:35:13.244Z,79.63
2023-11-23T23:37:45.372Z,79.69
2023-11-23T23:40:17.530Z,79.73
2023-11-23T23:42:50.240Z,79.84
2023-11-23T23:45:22.530Z,79.91
2023-11-23T23:47:55.447Z,80.00
2023-11-23T23:50:27.538Z,80.00
2023-11-23T23:52:59.510Z,80.09
2023-11-23T23:55:31.559Z,80.08
2023-11-23T23:58:05.681Z,80.46
